sensor_id;sensor_type;location;lat;lon;timestamp;temperature;humidity
3566;DHT22;1797;51.844;7.684;2023-04-25T00:01:38;6.40;99.90
3566;DHT22;1797;51.844;7.684;2023-04-25T00:04:04;6.30;1.00
3566;DHT22;1797;51.844;7.684;2023-04-25T00:06:32;6.40;99.90
3566;DHT22;1797;51.844;7.684;2023-04-25T00:08:57;6.40;1.00
3566;DHT22;1797;51.844;7.684;2023-04-25T00:11:24;6.40;99.90
3566;DHT22;1797;51.844;7.684;2023-04-25T00:13:49;6.40;99.90
3566;DHT22;1797;51.844;7.684;2023-04-25T00:16:19;6.40;99.90
3566;DHT22;1797;51.844;7.684;2023-04-25T00:18:45;6.40;1.00
3566;DHT22;1797;51.844;7.684;2023-04-25T00:21:17;6.40;1.00
3566;DHT22;1797;51.844;7.684;2023-04-25T00:23:43;6.40;1.00
3566;DHT22;1797;51.844;7.684;2023-04-25T00:26:09;6.40;1.00
3566;DHT22;1797;51.844;7.684;2023-04-25T00:28:34;6.40;2.60
3566;DHT22;1797;51.844;7.684;2023-04-25T00:31:00;6.50;99.90
3566;DHT22;1797;51.844;7.684;2023-04-25T00:33:25;6.40;99.90
3566;DHT22;1797;51.844;7.684;2023-04-25T00:35:51;6.40;1.00
3566;DHT22;1797;51.844;7.684;2023-04-25T00:38:16;6.40;99.90
3566;DHT22;1797;51.844;7.684;2023-04-25T00:40:42;6.40;1.00
3566;DHT22;1797;51.844;7.684;2023-04-25T00:43:09;6.30;91.10
3566;DHT22;1797;51.844;7.684;2023-04-25T00:45:37;6.40;99.90
3566;DHT22;1797;51.844;7.684;2023-04-25T00:48:04;6.30;99.90
3566;DHT22;1797;51.844;7.684;2023-04-25T00:50:30;6.30;1.00
3566;DHT22;1797;51.844;7.684;2023-04-25T00:52:56;6.30;1.00
3566;DHT22;1797;51.844;7.684;2023-04-25T00:55:21;6.30;99.90
3566;DHT22;1797;51.844;7.684;2023-04-25T00:57:48;6.40;1.00
3566;DHT22;1797;51.844;7.684;2023-04-25T01:00:14;6.30;1.00
3566;DHT22;1797;51.844;7.684;2023-04-25T01:02:41;6.30;1.00
3566;DHT22;1797;51.844;7.684;2023-04-25T01:05:07;6.40;94.30
3566;DHT22;1797;51.844;7.684;2023-04-25T01:07:34;6.30;99.90
3566;DHT22;1797;51.844;7.684;2023-04-25T01:10:00;6.40;99.90
3566;DHT22;1797;51.844;7.684;2023-04-25T01:12:26;6.30;99.90
3566;DHT22;1797;51.844;7.684;2023-04-25T01:14:52;6.30;99.90
3566;DHT22;1797;51.844;7.684;2023-04-25T01:17:18;6.30;99.90
3566;DHT22;1797;51.844;7.684;2023-04-25T01:19:44;6.30;99.90
3566;DHT22;1797;51.844;7.684;2023-04-25T01:22:11;6.30;99.90
3566;DHT22;1797;51.844;7.684;2023-04-25T01:24:37;6.30;99.90
3566;DHT22;1797;51.844;7.684;2023-04-25T01:27:02;6.30;99.90
3566;DHT22;1797;51.844;7.684;2023-04-25T01:29:30;6.30;99.90
3566;DHT22;1797;51.844;7.684;2023-04-25T01:31:56;6.30;99.90
3566;DHT22;1797;51.844;7.684;2023-04-25T01:34:23;6.30;99.90
3566;DHT22;1797;51.844;7.684;2023-04-25T01:36:49;6.30;99.90
3566;DHT22;1797;51.844;7.684;2023-04-25T01:39:16;6.30;99.90
3566;DHT22;1797;51.844;7.684;2023-04-25T01:41:42;6.30;99.90
3566;DHT22;1797;51.844;7.684;2023-04-25T01:44:08;6.30;99.90
3566;DHT22;1797;51.844;7.684;2023-04-25T01:46:34;6.30;99.90
3566;DHT22;1797;51.844;7.684;2023-04-25T01:49:00;6.30;99.90
3566;DHT22;1797;51.844;7.684;2023-04-25T01:51:26;6.30;99.90
3566;DHT22;1797;51.844;7.684;2023-04-25T01:53:52;6.30;99.90
3566;DHT22;1797;51.844;7.684;2023-04-25T01:56:18;6.30;99.90
3566;DHT22;1797;51.844;7.684;2023-04-25T01:58:44;6.40;99.90
3566;DHT22;1797;51.844;7.684;2023-04-25T02:01:10;6.40;99.90
3566;DHT22;1797;51.844;7.684;2023-04-25T02:03:36;6.40;99.90
3566;DHT22;1797;51.844;7.684;2023-04-25T02:06:02;6.40;99.90
3566;DHT22;1797;51.844;7.684;2023-04-25T02:08:27;6.40;99.90
3566;DHT22;1797;51.844;7.684;2023-04-25T02:10:53;6.40;99.90
3566;DHT22;1797;51.844;7.684;2023-04-25T02:13:18;6.40;99.90
3566;DHT22;1797;51.844;7.684;2023-04-25T02:15:44;6.40;99.90
3566;DHT22;1797;51.844;7.684;2023-04-25T02:18:10;6.50;99.90
3566;DHT22;1797;51.844;7.684;2023-04-25T02:20:36;6.50;99.90
3566;DHT22;1797;51.844;7.684;2023-04-25T02:23:02;6.40;99.90
3566;DHT22;1797;51.844;7.684;2023-04-25T02:25:28;6.40;99.90
3566;DHT22;1797;51.844;7.684;2023-04-25T02:27:54;6.40;99.90
3566;DHT22;1797;51.844;7.684;2023-04-25T02:30:20;6.50;99.90
3566;DHT22;1797;51.844;7.684;2023-04-25T02:32:46;6.40;99.90
3566;DHT22;1797;51.844;7.684;2023-04-25T02:35:11;6.50;99.90
3566;DHT22;1797;51.844;7.684;2023-04-25T02:37:38;6.50;99.90
3566;DHT22;1797;51.844;7.684;2023-04-25T02:40:04;6.50;99.90
3566;DHT22;1797;51.844;7.684;2023-04-25T02:42:31;6.50;99.90
3566;DHT22;1797;51.844;7.684;2023-04-25T02:44:56;6.50;99.90
3566;DHT22;1797;51.844;7.684;2023-04-25T02:47:22;6.50;99.90
3566;DHT22;1797;51.844;7.684;2023-04-25T02:49:48;6.50;99.90
3566;DHT22;1797;51.844;7.684;2023-04-25T02:52:13;6.50;99.90
3566;DHT22;1797;51.844;7.684;2023-04-25T02:54:42;6.50;99.90
3566;DHT22;1797;51.844;7.684;2023-04-25T02:57:08;6.50;99.90
3566;DHT22;1797;51.844;7.684;2023-04-25T02:59:34;6.50;99.90
3566;DHT22;1797;51.844;7.684;2023-04-25T03:02:00;6.40;99.90
3566;DHT22;1797;51.844;7.684;2023-04-25T03:04:26;6.40;99.90
3566;DHT22;1797;51.844;7.684;2023-04-25T03:06:52;6.40;99.90
3566;DHT22;1797;51.844;7.684;2023-04-25T03:09:17;6.40;99.90
3566;DHT22;1797;51.844;7.684;2023-04-25T03:11:44;6.30;99.90
3566;DHT22;1797;51.844;7.684;2023-04-25T03:14:10;6.30;99.90
3566;DHT22;1797;51.844;7.684;2023-04-25T03:16:36;6.30;99.90
3566;DHT22;1797;51.844;7.684;2023-04-25T03:19:03;6.30;99.90
3566;DHT22;1797;51.844;7.684;2023-04-25T03:21:29;6.30;99.90
3566;DHT22;1797;51.844;7.684;2023-04-25T03:23:57;6.20;99.90
3566;DHT22;1797;51.844;7.684;2023-04-25T03:26:22;6.30;99.90
3566;DHT22;1797;51.844;7.684;2023-04-25T03:28:48;6.20;99.90
3566;DHT22;1797;51.844;7.684;2023-04-25T03:31:14;6.20;99.90
3566;DHT22;1797;51.844;7.684;2023-04-25T03:33:40;6.20;99.90
3566;DHT22;1797;51.844;7.684;2023-04-25T03:36:06;6.20;99.90
3566;DHT22;1797;51.844;7.684;2023-04-25T03:38:31;6.20;99.90
3566;DHT22;1797;51.844;7.684;2023-04-25T03:40:57;6.20;99.90
3566;DHT22;1797;51.844;7.684;2023-04-25T03:43:23;6.20;99.90
3566;DHT22;1797;51.844;7.684;2023-04-25T03:45:48;6.20;99.90
3566;DHT22;1797;51.844;7.684;2023-04-25T03:48:14;6.20;99.90
3566;DHT22;1797;51.844;7.684;2023-04-25T03:50:40;6.20;99.90
3566;DHT22;1797;51.844;7.684;2023-04-25T03:53:05;6.20;99.90
3566;DHT22;1797;51.844;7.684;2023-04-25T03:55:31;6.20;99.90
3566;DHT22;1797;51.844;7.684;2023-04-25T03:57:57;6.30;99.90
3566;DHT22;1797;51.844;7.684;2023-04-25T04:00:24;6.20;99.90
3566;DHT22;1797;51.844;7.684;2023-04-25T04:02:49;6.20;99.90
3566;DHT22;1797;51.844;7.684;2023-04-25T04:05:15;6.20;99.90
3566;DHT22;1797;51.844;7.684;2023-04-25T04:07:40;6.30;99.90
3566;DHT22;1797;51.844;7.684;2023-04-25T04:10:11;6.30;99.90
3566;DHT22;1797;51.844;7.684;2023-04-25T04:12:37;6.30;99.90
3566;DHT22;1797;51.844;7.684;2023-04-25T04:15:04;6.30;99.90
3566;DHT22;1797;51.844;7.684;2023-04-25T04:17:30;6.30;99.90
3566;DHT22;1797;51.844;7.684;2023-04-25T04:19:56;6.30;99.90
3566;DHT22;1797;51.844;7.684;2023-04-25T04:22:22;6.30;99.90
3566;DHT22;1797;51.844;7.684;2023-04-25T04:24:48;6.30;99.90
3566;DHT22;1797;51.844;7.684;2023-04-25T04:27:15;6.30;99.90
3566;DHT22;1797;51.844;7.684;2023-04-25T04:29:42;6.20;99.90
3566;DHT22;1797;51.844;7.684;2023-04-25T04:32:08;6.20;99.90
3566;DHT22;1797;51.844;7.684;2023-04-25T04:34:34;6.20;99.90
3566;DHT22;1797;51.844;7.684;2023-04-25T04:37:00;6.20;99.90
3566;DHT22;1797;51.844;7.684;2023-04-25T04:39:26;6.10;99.90
3566;DHT22;1797;51.844;7.684;2023-04-25T04:41:51;6.20;99.90
3566;DHT22;1797;51.844;7.684;2023-04-25T04:44:17;6.20;99.90
3566;DHT22;1797;51.844;7.684;2023-04-25T04:46:43;6.20;99.90
3566;DHT22;1797;51.844;7.684;2023-04-25T04:49:10;6.20;99.90
3566;DHT22;1797;51.844;7.684;2023-04-25T04:51:36;6.20;99.90
3566;DHT22;1797;51.844;7.684;2023-04-25T04:54:02;6.10;99.90
3566;DHT22;1797;51.844;7.684;2023-04-25T04:56:29;6.10;99.90
3566;DHT22;1797;51.844;7.684;2023-04-25T04:58:56;6.10;99.90
3566;DHT22;1797;51.844;7.684;2023-04-25T05:01:22;6.10;99.90
3566;DHT22;1797;51.844;7.684;2023-04-25T05:03:48;6.10;99.90
3566;DHT22;1797;51.844;7.684;2023-04-25T05:06:13;6.20;89.50
3566;DHT22;1797;51.844;7.684;2023-04-25T05:08:39;6.20;90.70
3566;DHT22;1797;51.844;7.684;2023-04-25T05:11:05;6.20;76.70
3566;DHT22;1797;51.844;7.684;2023-04-25T05:13:30;6.20;1.00
3566;DHT22;1797;51.844;7.684;2023-04-25T05:15:56;6.20;1.00
3566;DHT22;1797;51.844;7.684;2023-04-25T05:18:21;6.20;1.00
3566;DHT22;1797;51.844;7.684;2023-04-25T05:20:47;6.20;1.00
3566;DHT22;1797;51.844;7.684;2023-04-25T05:23:13;6.20;1.00
3566;DHT22;1797;51.844;7.684;2023-04-25T05:25:38;6.20;1.00
3566;DHT22;1797;51.844;7.684;2023-04-25T05:28:04;6.20;1.00
3566;DHT22;1797;51.844;7.684;2023-04-25T05:30:31;6.20;1.00
3566;DHT22;1797;51.844;7.684;2023-04-25T05:32:56;6.20;1.00
3566;DHT22;1797;51.844;7.684;2023-04-25T05:35:22;6.30;99.90
3566;DHT22;1797;51.844;7.684;2023-04-25T05:37:47;6.30;99.90
3566;DHT22;1797;51.844;7.684;2023-04-25T05:40:13;6.30;1.00
3566;DHT22;1797;51.844;7.684;2023-04-25T05:42:38;6.30;1.00
3566;DHT22;1797;51.844;7.684;2023-04-25T05:45:05;6.30;1.00
3566;DHT22;1797;51.844;7.684;2023-04-25T05:47:30;6.40;1.00
3566;DHT22;1797;51.844;7.684;2023-04-25T05:49:56;6.40;99.90
3566;DHT22;1797;51.844;7.684;2023-04-25T05:52:22;6.50;99.90
3566;DHT22;1797;51.844;7.684;2023-04-25T05:54:48;6.50;99.90
3566;DHT22;1797;51.844;7.684;2023-04-25T05:57:24;6.60;99.90
3566;DHT22;1797;51.844;7.684;2023-04-25T05:59:50;6.60;1.00
3566;DHT22;1797;51.844;7.684;2023-04-25T06:02:16;6.70;1.00
3566;DHT22;1797;51.844;7.684;2023-04-25T06:04:42;6.70;1.00
3566;DHT22;1797;51.844;7.684;2023-04-25T06:07:07;6.70;1.00
3566;DHT22;1797;51.844;7.684;2023-04-25T06:09:33;6.70;1.00
3566;DHT22;1797;51.844;7.684;2023-04-25T06:11:59;6.60;1.00
3566;DHT22;1797;51.844;7.684;2023-04-25T06:14:25;6.60;1.00
3566;DHT22;1797;51.844;7.684;2023-04-25T06:16:50;6.70;1.00
3566;DHT22;1797;51.844;7.684;2023-04-25T06:19:16;6.60;1.00
3566;DHT22;1797;51.844;7.684;2023-04-25T06:21:43;6.60;1.00
3566;DHT22;1797;51.844;7.684;2023-04-25T06:24:09;6.60;99.90
3566;DHT22;1797;51.844;7.684;2023-04-25T06:26:35;6.60;99.90
3566;DHT22;1797;51.844;7.684;2023-04-25T06:29:00;6.70;99.90
3566;DHT22;1797;51.844;7.684;2023-04-25T06:31:26;6.80;99.90
3566;DHT22;1797;51.844;7.684;2023-04-25T06:33:51;6.90;99.90
3566;DHT22;1797;51.844;7.684;2023-04-25T06:36:22;7.00;99.90
3566;DHT22;1797;51.844;7.684;2023-04-25T06:38:51;7.20;99.90
3566;DHT22;1797;51.844;7.684;2023-04-25T06:41:17;7.10;1.00
3566;DHT22;1797;51.844;7.684;2023-04-25T06:43:43;7.20;1.00
3566;DHT22;1797;51.844;7.684;2023-04-25T06:46:08;7.30;15.40
3566;DHT22;1797;51.844;7.684;2023-04-25T06:48:34;7.20;1.00
3566;DHT22;1797;51.844;7.684;2023-04-25T06:51:00;7.20;1.00
3566;DHT22;1797;51.844;7.684;2023-04-25T06:53:25;7.30;1.00
3566;DHT22;1797;51.844;7.684;2023-04-25T06:55:51;7.30;1.00
3566;DHT22;1797;51.844;7.684;2023-04-25T06:58:17;7.40;1.00
3566;DHT22;1797;51.844;7.684;2023-04-25T07:00:43;7.40;99.90
3566;DHT22;1797;51.844;7.684;2023-04-25T07:03:08;7.40;99.90
3566;DHT22;1797;51.844;7.684;2023-04-25T07:05:34;7.50;99.90
3566;DHT22;1797;51.844;7.684;2023-04-25T07:08:00;7.60;99.90
3566;DHT22;1797;51.844;7.684;2023-04-25T07:10:26;7.70;99.90
3566;DHT22;1797;51.844;7.684;2023-04-25T07:12:51;7.70;99.90
3566;DHT22;1797;51.844;7.684;2023-04-25T07:15:17;7.80;99.90
3566;DHT22;1797;51.844;7.684;2023-04-25T07:17:43;7.80;99.90
3566;DHT22;1797;51.844;7.684;2023-04-25T07:20:08;7.80;99.90
3566;DHT22;1797;51.844;7.684;2023-04-25T07:22:35;7.90;99.90
3566;DHT22;1797;51.844;7.684;2023-04-25T07:25:01;8.00;55.40
3566;DHT22;1797;51.844;7.684;2023-04-25T07:27:26;8.00;21.70
3566;DHT22;1797;51.844;7.684;2023-04-25T07:29:52;8.00;39.70
3566;DHT22;1797;51.844;7.684;2023-04-25T07:32:18;7.90;1.00
3566;DHT22;1797;51.844;7.684;2023-04-25T07:34:43;7.90;1.00
3566;DHT22;1797;51.844;7.684;2023-04-25T07:37:09;8.00;1.00
3566;DHT22;1797;51.844;7.684;2023-04-25T07:39:34;8.00;1.00
3566;DHT22;1797;51.844;7.684;2023-04-25T07:42:01;8.00;1.00
3566;DHT22;1797;51.844;7.684;2023-04-25T07:44:27;8.10;1.00
3566;DHT22;1797;51.844;7.684;2023-04-25T07:46:53;8.10;1.00
3566;DHT22;1797;51.844;7.684;2023-04-25T07:49:18;8.10;1.00
3566;DHT22;1797;51.844;7.684;2023-04-25T07:51:44;8.30;1.00
3566;DHT22;1797;51.844;7.684;2023-04-25T07:54:13;8.40;1.00
3566;DHT22;1797;51.844;7.684;2023-04-25T07:56:39;8.50;1.00
3566;DHT22;1797;51.844;7.684;2023-04-25T07:59:05;8.50;1.00
3566;DHT22;1797;51.844;7.684;2023-04-25T08:01:30;8.50;1.00
3566;DHT22;1797;51.844;7.684;2023-04-25T08:03:56;8.60;1.00
3566;DHT22;1797;51.844;7.684;2023-04-25T08:06:21;8.70;1.00
3566;DHT22;1797;51.844;7.684;2023-04-25T08:08:47;8.80;1.00
3566;DHT22;1797;51.844;7.684;2023-04-25T08:11:12;8.70;1.00
3566;DHT22;1797;51.844;7.684;2023-04-25T08:13:38;8.70;1.00
3566;DHT22;1797;51.844;7.684;2023-04-25T08:16:04;8.70;1.00
3566;DHT22;1797;51.844;7.684;2023-04-25T08:18:29;8.70;1.00
3566;DHT22;1797;51.844;7.684;2023-04-25T08:20:56;8.70;1.00
3566;DHT22;1797;51.844;7.684;2023-04-25T08:23:22;8.70;1.00
3566;DHT22;1797;51.844;7.684;2023-04-25T08:25:48;8.70;1.00
3566;DHT22;1797;51.844;7.684;2023-04-25T08:28:14;8.80;1.00
3566;DHT22;1797;51.844;7.684;2023-04-25T08:30:40;9.10;1.00
3566;DHT22;1797;51.844;7.684;2023-04-25T08:33:06;9.10;1.00
3566;DHT22;1797;51.844;7.684;2023-04-25T08:35:31;9.20;1.00
3566;DHT22;1797;51.844;7.684;2023-04-25T08:37:58;9.20;1.00
3566;DHT22;1797;51.844;7.684;2023-04-25T08:40:27;9.50;1.00
3566;DHT22;1797;51.844;7.684;2023-04-25T08:42:57;9.60;1.00
3566;DHT22;1797;51.844;7.684;2023-04-25T08:45:23;9.60;1.00
3566;DHT22;1797;51.844;7.684;2023-04-25T08:47:51;9.30;1.00
3566;DHT22;1797;51.844;7.684;2023-04-25T08:50:18;9.40;1.00
3566;DHT22;1797;51.844;7.684;2023-04-25T08:52:47;9.40;1.00
3566;DHT22;1797;51.844;7.684;2023-04-25T08:55:15;9.40;1.00
3566;DHT22;1797;51.844;7.684;2023-04-25T08:57:42;9.20;1.00
3566;DHT22;1797;51.844;7.684;2023-04-25T09:00:10;9.00;1.00
3566;DHT22;1797;51.844;7.684;2023-04-25T09:02:36;9.20;1.00
3566;DHT22;1797;51.844;7.684;2023-04-25T09:05:02;9.20;1.00
3566;DHT22;1797;51.844;7.684;2023-04-25T09:07:30;9.30;1.00
3566;DHT22;1797;51.844;7.684;2023-04-25T09:09:55;9.20;1.00
3566;DHT22;1797;51.844;7.684;2023-04-25T09:12:21;9.10;1.00
3566;DHT22;1797;51.844;7.684;2023-04-25T09:15:08;9.10;1.00
3566;DHT22;1797;51.844;7.684;2023-04-25T09:17:34;8.80;1.00
3566;DHT22;1797;51.844;7.684;2023-04-25T09:20:13;8.70;1.00
3566;DHT22;1797;51.844;7.684;2023-04-25T09:22:38;8.90;1.00
3566;DHT22;1797;51.844;7.684;2023-04-25T09:25:11;9.40;1.00
3566;DHT22;1797;51.844;7.684;2023-04-25T09:27:50;9.80;1.00
3566;DHT22;1797;51.844;7.684;2023-04-25T09:30:17;10.00;1.00
3566;DHT22;1797;51.844;7.684;2023-04-25T09:32:43;10.40;1.00
3566;DHT22;1797;51.844;7.684;2023-04-25T09:35:10;10.80;99.90
3566;DHT22;1797;51.844;7.684;2023-04-25T09:37:36;10.80;99.90
3566;DHT22;1797;51.844;7.684;2023-04-25T09:40:05;10.70;99.90
3566;DHT22;1797;51.844;7.684;2023-04-25T09:42:32;10.60;99.90
3566;DHT22;1797;51.844;7.684;2023-04-25T09:45:00;10.50;99.90
3566;DHT22;1797;51.844;7.684;2023-04-25T09:47:27;10.60;99.90
3566;DHT22;1797;51.844;7.684;2023-04-25T09:49:54;10.40;99.90
3566;DHT22;1797;51.844;7.684;2023-04-25T09:52:24;10.10;99.90
3566;DHT22;1797;51.844;7.684;2023-04-25T09:54:51;9.80;99.90
3566;DHT22;1797;51.844;7.684;2023-04-25T09:57:21;9.60;1.00
3566;DHT22;1797;51.844;7.684;2023-04-25T09:59:52;9.50;1.00
3566;DHT22;1797;51.844;7.684;2023-04-25T10:02:24;9.40;1.00
3566;DHT22;1797;51.844;7.684;2023-04-25T10:04:51;9.40;1.00
3566;DHT22;1797;51.844;7.684;2023-04-25T10:07:20;9.40;1.00
3566;DHT22;1797;51.844;7.684;2023-04-25T10:09:49;9.40;1.00
3566;DHT22;1797;51.844;7.684;2023-04-25T10:12:17;9.40;1.00
3566;DHT22;1797;51.844;7.684;2023-04-25T10:14:44;9.40;1.00
3566;DHT22;1797;51.844;7.684;2023-04-25T10:17:11;9.40;99.90
3566;DHT22;1797;51.844;7.684;2023-04-25T10:19:37;9.60;1.00
3566;DHT22;1797;51.844;7.684;2023-04-25T10:22:11;10.10;99.90
3566;DHT22;1797;51.844;7.684;2023-04-25T10:24:39;10.50;1.00
3566;DHT22;1797;51.844;7.684;2023-04-25T10:27:05;10.60;99.90
3566;DHT22;1797;51.844;7.684;2023-04-25T10:29:31;10.70;99.90
3566;DHT22;1797;51.844;7.684;2023-04-25T10:31:57;10.60;99.90
3566;DHT22;1797;51.844;7.684;2023-04-25T10:34:43;10.50;99.90
3566;DHT22;1797;51.844;7.684;2023-04-25T10:37:12;10.60;99.90
3566;DHT22;1797;51.844;7.684;2023-04-25T10:39:40;10.70;99.90
3566;DHT22;1797;51.844;7.684;2023-04-25T10:42:06;10.50;99.90
3566;DHT22;1797;51.844;7.684;2023-04-25T10:44:33;10.50;99.90
3566;DHT22;1797;51.844;7.684;2023-04-25T10:47:00;10.30;99.90
3566;DHT22;1797;51.844;7.684;2023-04-25T10:49:33;10.20;99.90
3566;DHT22;1797;51.844;7.684;2023-04-25T10:52:24;10.10;99.90
3566;DHT22;1797;51.844;7.684;2023-04-25T10:54:57;9.90;99.90
3566;DHT22;1797;51.844;7.684;2023-04-25T10:57:27;9.90;99.90
3566;DHT22;1797;51.844;7.684;2023-04-25T10:59:58;9.80;99.90
3566;DHT22;1797;51.844;7.684;2023-04-25T11:02:26;9.80;1.00
3566;DHT22;1797;51.844;7.684;2023-04-25T11:04:53;9.80;99.90
3566;DHT22;1797;51.844;7.684;2023-04-25T11:10:05;10.40;1.00
3566;DHT22;1797;51.844;7.684;2023-04-25T11:12:32;10.90;99.90
3566;DHT22;1797;51.844;7.684;2023-04-25T11:15:07;10.90;99.90
3566;DHT22;1797;51.844;7.684;2023-04-25T11:17:33;10.90;99.90
3566;DHT22;1797;51.844;7.684;2023-04-25T11:19:59;11.20;99.90
3566;DHT22;1797;51.844;7.684;2023-04-25T11:22:26;11.30;99.90
3566;DHT22;1797;51.844;7.684;2023-04-25T11:24:53;11.60;99.90
3566;DHT22;1797;51.844;7.684;2023-04-25T11:27:19;11.50;99.90
3566;DHT22;1797;51.844;7.684;2023-04-25T11:29:44;11.10;99.90
3566;DHT22;1797;51.844;7.684;2023-04-25T11:32:14;10.60;99.90
3566;DHT22;1797;51.844;7.684;2023-04-25T11:34:43;10.40;99.90
3566;DHT22;1797;51.844;7.684;2023-04-25T11:37:10;10.90;99.90
3566;DHT22;1797;51.844;7.684;2023-04-25T11:39:37;11.90;99.90
3566;DHT22;1797;51.844;7.684;2023-04-25T11:42:04;12.80;99.90
3566;DHT22;1797;51.844;7.684;2023-04-25T11:44:31;12.90;99.90
3566;DHT22;1797;51.844;7.684;2023-04-25T11:46:56;12.60;99.90
3566;DHT22;1797;51.844;7.684;2023-04-25T11:49:22;11.80;99.90
3566;DHT22;1797;51.844;7.684;2023-04-25T11:51:50;11.20;99.90
3566;DHT22;1797;51.844;7.684;2023-04-25T11:54:16;10.70;99.90
3566;DHT22;1797;51.844;7.684;2023-04-25T11:56:42;10.20;99.90
3566;DHT22;1797;51.844;7.684;2023-04-25T11:59:08;9.70;99.90
3566;DHT22;1797;51.844;7.684;2023-04-25T12:01:36;9.30;1.00
3566;DHT22;1797;51.844;7.684;2023-04-25T12:04:22;9.20;1.00
3566;DHT22;1797;51.844;7.684;2023-04-25T12:06:50;9.20;1.00
3566;DHT22;1797;51.844;7.684;2023-04-25T12:09:18;9.00;1.00
3566;DHT22;1797;51.844;7.684;2023-04-25T12:11:55;8.90;1.00
3566;DHT22;1797;51.844;7.684;2023-04-25T12:16:49;8.30;1.00
3566;DHT22;1797;51.844;7.684;2023-04-25T12:19:19;8.20;1.00
3566;DHT22;1797;51.844;7.684;2023-04-25T12:21:45;8.40;1.00
3566;DHT22;1797;51.844;7.684;2023-04-25T12:24:13;8.50;1.00
3566;DHT22;1797;51.844;7.684;2023-04-25T12:29:19;9.10;1.00
3566;DHT22;1797;51.844;7.684;2023-04-25T12:31:45;9.40;1.00
3566;DHT22;1797;51.844;7.684;2023-04-25T12:34:11;9.50;1.00
3566;DHT22;1797;51.844;7.684;2023-04-25T12:36:37;9.50;1.00
3566;DHT22;1797;51.844;7.684;2023-04-25T12:39:04;9.30;1.00
3566;DHT22;1797;51.844;7.684;2023-04-25T12:41:30;9.20;1.00
3566;DHT22;1797;51.844;7.684;2023-04-25T12:43:55;9.10;1.00
3566;DHT22;1797;51.844;7.684;2023-04-25T12:46:21;8.90;1.00
3566;DHT22;1797;51.844;7.684;2023-04-25T12:48:48;8.90;1.00
3566;DHT22;1797;51.844;7.684;2023-04-25T12:51:14;8.80;1.00
3566;DHT22;1797;51.844;7.684;2023-04-25T12:53:40;8.70;1.00
3566;DHT22;1797;51.844;7.684;2023-04-25T12:56:07;8.60;1.00
3566;DHT22;1797;51.844;7.684;2023-04-25T12:58:33;8.70;1.00
3566;DHT22;1797;51.844;7.684;2023-04-25T13:00:59;8.90;1.00
3566;DHT22;1797;51.844;7.684;2023-04-25T13:03:24;9.00;1.00
3566;DHT22;1797;51.844;7.684;2023-04-25T13:05:51;9.30;1.00
3566;DHT22;1797;51.844;7.684;2023-04-25T13:08:18;9.60;1.00
3566;DHT22;1797;51.844;7.684;2023-04-25T13:10:44;10.30;1.00
3566;DHT22;1797;51.844;7.684;2023-04-25T13:13:09;11.10;1.00
3566;DHT22;1797;51.844;7.684;2023-04-25T13:15:35;11.80;1.00
3566;DHT22;1797;51.844;7.684;2023-04-25T13:18:03;12.40;99.90
3566;DHT22;1797;51.844;7.684;2023-04-25T13:20:29;12.30;99.90
3566;DHT22;1797;51.844;7.684;2023-04-25T13:22:56;12.10;99.90
3566;DHT22;1797;51.844;7.684;2023-04-25T13:25:22;11.90;99.90
3566;DHT22;1797;51.844;7.684;2023-04-25T13:27:48;12.10;99.90
3566;DHT22;1797;51.844;7.684;2023-04-25T13:30:13;12.20;99.90
3566;DHT22;1797;51.844;7.684;2023-04-25T13:32:39;12.40;99.90
3566;DHT22;1797;51.844;7.684;2023-04-25T13:35:10;12.10;99.90
3566;DHT22;1797;51.844;7.684;2023-04-25T13:37:37;11.70;99.90
3566;DHT22;1797;51.844;7.684;2023-04-25T13:40:05;11.40;99.90
3566;DHT22;1797;51.844;7.684;2023-04-25T13:42:33;11.10;1.00
3566;DHT22;1797;51.844;7.684;2023-04-25T13:44:58;11.00;1.00
3566;DHT22;1797;51.844;7.684;2023-04-25T13:47:26;10.80;1.00
3566;DHT22;1797;51.844;7.684;2023-04-25T13:49:51;10.60;1.00
3566;DHT22;1797;51.844;7.684;2023-04-25T13:52:17;10.30;1.00
3566;DHT22;1797;51.844;7.684;2023-04-25T13:54:43;9.90;1.00
3566;DHT22;1797;51.844;7.684;2023-04-25T13:57:09;9.70;1.00
3566;DHT22;1797;51.844;7.684;2023-04-25T13:59:36;9.50;1.00
3566;DHT22;1797;51.844;7.684;2023-04-25T14:02:02;9.80;1.00
3566;DHT22;1797;51.844;7.684;2023-04-25T14:04:28;10.20;1.00
3566;DHT22;1797;51.844;7.684;2023-04-25T14:06:53;10.30;1.00
3566;DHT22;1797;51.844;7.684;2023-04-25T14:09:19;10.00;1.00
3566;DHT22;1797;51.844;7.684;2023-04-25T14:11:47;9.90;1.00
3566;DHT22;1797;51.844;7.684;2023-04-25T14:14:13;9.60;1.00
3566;DHT22;1797;51.844;7.684;2023-04-25T14:16:41;9.50;1.00
3566;DHT22;1797;51.844;7.684;2023-04-25T14:19:07;9.40;1.00
3566;DHT22;1797;51.844;7.684;2023-04-25T14:21:32;9.40;1.00
3566;DHT22;1797;51.844;7.684;2023-04-25T14:23:58;9.40;1.00
3566;DHT22;1797;51.844;7.684;2023-04-25T14:26:24;9.50;1.00
3566;DHT22;1797;51.844;7.684;2023-04-25T14:28:51;9.50;1.00
3566;DHT22;1797;51.844;7.684;2023-04-25T14:31:17;9.70;1.00
3566;DHT22;1797;51.844;7.684;2023-04-25T14:33:42;9.90;1.00
3566;DHT22;1797;51.844;7.684;2023-04-25T14:36:09;10.00;1.00
3566;DHT22;1797;51.844;7.684;2023-04-25T14:38:34;10.10;1.00
3566;DHT22;1797;51.844;7.684;2023-04-25T14:41:00;10.20;1.00
3566;DHT22;1797;51.844;7.684;2023-04-25T14:43:25;10.30;1.00
3566;DHT22;1797;51.844;7.684;2023-04-25T14:45:51;10.40;1.00
3566;DHT22;1797;51.844;7.684;2023-04-25T14:48:17;10.50;1.00
3566;DHT22;1797;51.844;7.684;2023-04-25T14:50:45;10.50;1.00
3566;DHT22;1797;51.844;7.684;2023-04-25T14:53:11;10.60;1.00
3566;DHT22;1797;51.844;7.684;2023-04-25T14:55:37;10.70;1.00
3566;DHT22;1797;51.844;7.684;2023-04-25T14:58:03;10.80;1.00
3566;DHT22;1797;51.844;7.684;2023-04-25T15:00:28;10.90;1.00
3566;DHT22;1797;51.844;7.684;2023-04-25T15:02:56;10.90;1.00
3566;DHT22;1797;51.844;7.684;2023-04-25T15:05:22;11.00;1.00
3566;DHT22;1797;51.844;7.684;2023-04-25T15:07:48;10.90;1.00
3566;DHT22;1797;51.844;7.684;2023-04-25T15:10:13;10.90;1.00
3566;DHT22;1797;51.844;7.684;2023-04-25T15:12:42;10.90;1.00
3566;DHT22;1797;51.844;7.684;2023-04-25T15:15:08;11.10;99.90
3566;DHT22;1797;51.844;7.684;2023-04-25T15:17:38;10.90;99.90
3566;DHT22;1797;51.844;7.684;2023-04-25T15:20:06;10.60;99.90
3566;DHT22;1797;51.844;7.684;2023-04-25T15:22:32;10.50;99.90
3566;DHT22;1797;51.844;7.684;2023-04-25T15:24:58;10.50;99.90
3566;DHT22;1797;51.844;7.684;2023-04-25T15:27:23;10.60;99.90
3566;DHT22;1797;51.844;7.684;2023-04-25T15:29:49;10.40;99.90
3566;DHT22;1797;51.844;7.684;2023-04-25T15:32:15;10.40;99.90
3566;DHT22;1797;51.844;7.684;2023-04-25T15:34:41;10.10;99.90
3566;DHT22;1797;51.844;7.684;2023-04-25T15:37:06;10.20;99.90
3566;DHT22;1797;51.844;7.684;2023-04-25T15:39:32;10.30;99.90
3566;DHT22;1797;51.844;7.684;2023-04-25T15:41:57;10.70;99.90
3566;DHT22;1797;51.844;7.684;2023-04-25T15:44:24;10.90;99.90
3566;DHT22;1797;51.844;7.684;2023-04-25T15:46:50;11.20;99.90
3566;DHT22;1797;51.844;7.684;2023-04-25T15:49:15;11.30;99.90
3566;DHT22;1797;51.844;7.684;2023-04-25T15:51:41;11.20;99.90
3566;DHT22;1797;51.844;7.684;2023-04-25T15:54:06;11.00;99.90
3566;DHT22;1797;51.844;7.684;2023-04-25T15:56:32;10.70;99.90
3566;DHT22;1797;51.844;7.684;2023-04-25T15:58:58;10.30;99.90
3566;DHT22;1797;51.844;7.684;2023-04-25T16:01:24;10.30;99.90
3566;DHT22;1797;51.844;7.684;2023-04-25T16:03:50;10.30;99.90
3566;DHT22;1797;51.844;7.684;2023-04-25T16:06:17;10.40;99.90
3566;DHT22;1797;51.844;7.684;2023-04-25T16:08:42;10.70;99.90
3566;DHT22;1797;51.844;7.684;2023-04-25T16:11:08;10.80;99.90
3566;DHT22;1797;51.844;7.684;2023-04-25T16:13:34;10.60;99.90
3566;DHT22;1797;51.844;7.684;2023-04-25T16:16:00;10.20;99.90
3566;DHT22;1797;51.844;7.684;2023-04-25T16:18:26;10.20;99.90
3566;DHT22;1797;51.844;7.684;2023-04-25T16:20:52;10.30;99.90
3566;DHT22;1797;51.844;7.684;2023-04-25T16:23:18;10.60;99.90